createdAt,value
2022-08-26T07:10:13.222Z,112.50
2022-08-26T07:11:03.730Z,106.88
2022-08-26T07:12:04.873Z,106.88
2022-08-26T07:13:06.965Z,95.63
2022-08-26T07:14:03.912Z,84.38
2022-08-26T07:15:10.334Z,78.75
2022-08-26T07:16:04.225Z,90.00
2022-08-26T07:17:05.295Z,95.63
2022-08-26T07:18:05.323Z,95.63
2022-08-26T07:19:11.260Z,90.00
2022-08-26T07:20:05.271Z,90.00
2022-08-26T07:21:03.709Z,101.25
2022-08-26T07:22:03.877Z,106.88
2022-08-26T07:23:05.309Z,118.13
2022-08-26T07:24:03.720Z,112.50
2022-08-26T07:25:05.295Z,112.50
2022-08-26T07:26:03.736Z,95.63
2022-08-26T07:27:05.674Z,101.25
2022-08-26T07:28:03.718Z,118.13
2022-08-26T07:29:03.758Z,118.13
2022-08-26T07:30:04.031Z,118.13
2022-08-26T07:31:05.505Z,118.13
2022-08-26T07:32:06.226Z,118.13
2022-08-26T07:33:03.885Z,123.75
2022-08-26T07:34:03.721Z,118.13
2022-08-26T07:35:05.303Z,118.13
2022-08-26T07:36:04.197Z,118.13
2022-08-26T07:37:03.728Z,118.13
2022-08-26T07:38:04.211Z,118.13
2022-08-26T07:39:06.395Z,112.50
2022-08-26T07:40:03.804Z,95.63
2022-08-26T07:41:06.369Z,106.88
2022-08-26T07:42:07.486Z,118.13
2022-08-26T07:43:03.759Z,123.75
2022-08-26T07:44:04.325Z,123.75
2022-08-26T07:45:03.768Z,112.50
2022-08-26T07:46:03.818Z,118.13
2022-08-26T07:47:03.805Z,123.75
2022-08-26T07:48:04.771Z,123.75
2022-08-26T07:49:03.793Z,118.13
2022-08-26T07:50:05.326Z,118.13
2022-08-26T07:51:03.911Z,106.88
2022-08-26T07:52:07.937Z,101.25
2022-08-26T07:53:03.813Z,90.00
2022-08-26T07:54:03.762Z,90.00
2022-08-26T07:55:03.897Z,90.00
2022-08-26T07:56:03.793Z,101.25
2022-08-26T07:57:15.742Z,106.88
2022-08-26T07:58:03.795Z,106.88
2022-08-26T07:59:04.198Z,101.25
2022-08-26T08:00:03.991Z,106.88
2022-08-26T08:01:18.671Z,112.50
2022-08-26T08:02:04.125Z,112.50
2022-08-26T08:03:03.789Z,118.13
2022-08-26T08:04:05.357Z,123.75
2022-08-26T08:05:03.860Z,129.38
2022-08-26T08:06:05.331Z,129.38
2022-08-26T08:07:05.376Z,129.38
2022-08-26T08:08:26.329Z,129.38
2022-08-26T08:09:18.948Z,123.75
2022-08-26T08:10:09.620Z,123.75
2022-08-26T08:11:03.811Z,123.75
2022-08-26T08:12:05.444Z,123.75
2022-08-26T08:13:03.848Z,129.38
2022-08-26T08:14:03.835Z,118.13
2022-08-26T08:15:05.189Z,118.13
2022-08-26T08:16:03.818Z,112.50
2022-08-26T08:17:04.032Z,135.00
2022-08-26T08:19:03.892Z,135.00
2022-08-26T08:20:05.382Z,106.88
2022-08-26T08:21:21.185Z,123.75
2022-08-26T08:22:13.328Z,106.88
2022-08-26T08:23:05.351Z,106.88
2022-08-26T08:24:03.859Z,101.25
2022-08-26T08:25:06.275Z,101.25
2022-08-26T08:26:04.850Z,118.13
2022-08-26T08:27:04.855Z,118.13
2022-08-26T08:28:04.876Z,112.50
2022-08-26T08:29:04.857Z,135.00
2022-08-26T08:30:05.852Z,140.63
2022-08-26T08:31:04.970Z,129.38
2022-08-26T08:32:05.986Z,112.50
2022-08-26T08:33:04.888Z,118.13
2022-08-26T08:34:05.924Z,129.38
2022-08-26T08:35:11.087Z,123.75
2022-08-26T08:36:05.970Z,118.13
2022-08-26T08:37:06.154Z,112.50
2022-08-26T08:38:05.014Z,112.50
2022-08-26T08:39:06.493Z,112.50
2022-08-26T08:40:03.983Z,112.50
2022-08-26T08:41:05.893Z,112.50
2022-08-26T08:42:03.926Z,112.50
2022-08-26T08:43:04.153Z,112.50
2022-08-26T08:44:03.901Z,112.50
2022-08-26T08:45:05.869Z,118.13
2022-08-26T08:46:04.402Z,135.00
2022-08-26T08:47:03.941Z,135.00
2022-08-26T08:48:03.919Z,123.75
2022-08-26T08:49:04.930Z,106.88
2022-08-26T08:50:05.890Z,101.25
2022-08-26T08:51:05.922Z,106.88
2022-08-26T08:52:05.891Z,118.13
2022-08-26T08:53:03.974Z,129.38
2022-08-26T08:54:05.891Z,112.50
2022-08-26T08:55:03.978Z,140.63
2022-08-26T08:56:05.874Z,146.25
2022-08-26T08:57:05.970Z,140.63
2022-08-26T08:58:08.145Z,151.88
2022-08-26T08:59:05.881Z,157.50
2022-08-26T09:00:05.909Z,151.88
2022-08-26T09:01:05.034Z,151.88
2022-08-26T09:02:06.512Z,146.25
2022-08-26T09:03:05.006Z,146.25
2022-08-26T09:04:05.899Z,151.88
2022-08-26T09:05:05.883Z,151.88
2022-08-26T09:06:05.890Z,146.25
2022-08-26T09:07:05.923Z,146.25
2022-08-26T09:08:06.517Z,146.25
2022-08-26T09:09:05.908Z,146.25
2022-08-26T09:10:07.923Z,135.00
2022-08-26T09:12:05.938Z,140.63
2022-08-26T09:13:05.011Z,135.00
2022-08-26T09:14:04.002Z,140.63
2022-08-26T09:15:06.097Z,123.75
2022-08-26T09:16:06.421Z,123.75
2022-08-26T09:17:04.092Z,140.63
2022-08-26T09:18:05.805Z,135.00
2022-08-26T09:19:05.996Z,135.00
2022-08-26T09:20:04.229Z,163.13
2022-08-26T09:21:05.956Z,163.13
2022-08-26T09:22:09.411Z,163.13
2022-08-26T09:23:04.929Z,163.13
2022-08-26T09:24:04.033Z,157.50
2022-08-26T09:25:04.031Z,163.13
2022-08-26T09:26:05.960Z,157.50
2022-08-26T09:29:06.321Z,151.88
2022-08-26T09:30:05.979Z,135.00
2022-08-26T09:31:07.939Z,146.25
2022-08-26T09:32:04.081Z,135.00
2022-08-26T09:33:06.654Z,123.75
2022-08-26T09:34:07.335Z,123.75
2022-08-26T09:35:06.153Z,118.13
2022-08-26T09:36:07.243Z,118.13
2022-08-26T09:37:09.831Z,118.13
2022-08-26T09:38:10.441Z,112.50
2022-08-26T09:39:05.300Z,112.50
2022-08-26T09:40:04.137Z,118.13
2022-08-26T09:41:06.343Z,118.13
2022-08-26T09:42:04.135Z,118.13
2022-08-26T09:43:04.105Z,123.75
2022-08-26T09:44:07.160Z,123.75
2022-08-26T09:45:04.128Z,123.75
2022-08-26T09:46:04.370Z,123.75
2022-08-26T09:47:04.222Z,123.75
2022-08-26T09:48:06.060Z,123.75
2022-08-26T09:49:04.591Z,123.75
2022-08-26T09:50:04.132Z,123.75
2022-08-26T09:51:06.944Z,123.75
2022-08-26T09:52:04.169Z,129.38
2022-08-26T09:53:04.247Z,135.00
2022-08-26T09:54:08.120Z,135.00
2022-08-26T09:55:05.940Z,140.63
2022-08-26T09:56:06.020Z,146.25
2022-08-26T09:57:06.000Z,168.75
2022-08-26T09:58:09.105Z,168.75
2022-08-26T09:59:06.467Z,157.50
2022-08-26T10:00:05.999Z,146.25
2022-08-26T10:01:06.016Z,140.63
2022-08-26T10:13:05.479Z,168.75
2022-08-26T10:14:05.889Z,168.75
2022-08-26T10:15:05.886Z,168.75
2022-08-26T10:16:05.860Z,163.13
2022-08-26T10:17:04.438Z,163.13
2022-08-26T10:18:05.987Z,168.75
2022-08-26T10:19:04.276Z,174.38
2022-08-26T10:20:04.302Z,174.38
2022-08-26T10:21:04.279Z,174.38
2022-08-26T10:22:05.882Z,185.63
2022-08-26T10:23:04.288Z,180.00
2022-08-26T10:24:04.303Z,185.63
2022-08-26T10:25:05.912Z,185.63
2022-08-26T10:26:06.917Z,191.25
2022-08-26T10:27:05.880Z,196.88
2022-08-26T10:28:06.166Z,196.88
2022-08-26T10:29:05.885Z,202.50
2022-08-26T10:30:04.345Z,202.50
2022-08-26T10:31:05.914Z,196.88
2022-08-26T10:32:06.958Z,196.88
2022-08-26T10:34:05.902Z,208.13
2022-08-26T10:35:05.906Z,208.13
2022-08-26T10:36:05.916Z,202.50
2022-08-26T10:37:13.732Z,191.25
2022-08-26T10:38:05.997Z,168.75
2022-08-26T10:39:05.949Z,151.88
2022-08-26T10:40:05.938Z,151.88
2022-08-26T10:41:09.771Z,163.13
2022-08-26T10:42:05.896Z,174.38
2022-08-26T10:43:11.140Z,191.25
2022-08-26T10:44:05.973Z,191.25
2022-08-26T10:45:05.904Z,191.25
2022-08-26T10:46:05.921Z,191.25
2022-08-26T10:47:05.949Z,191.25
2022-08-26T10:48:06.146Z,180.00
2022-08-26T10:49:06.510Z,168.75
2022-08-26T10:50:04.441Z,174.38
2022-08-26T10:51:04.433Z,168.75
2022-08-26T10:52:04.419Z,168.75
2022-08-26T10:53:06.434Z,163.13
2022-08-26T10:54:06.421Z,151.88
2022-08-26T10:55:04.438Z,146.25
2022-08-26T10:56:06.421Z,151.88
2022-08-26T10:57:04.486Z,146.25
2022-08-26T10:58:05.094Z,151.88
2022-08-26T10:59:06.473Z,157.50
2022-08-26T11:00:04.468Z,163.13
2022-08-26T11:01:10.583Z,174.38
2022-08-26T11:02:04.466Z,185.63
2022-08-26T11:03:04.491Z,208.13
2022-08-26T11:04:06.503Z,230.63
2022-08-26T11:05:05.515Z,241.88
2022-08-26T11:06:05.522Z,241.88
2022-08-26T11:07:05.545Z,225.00
2022-08-26T11:08:05.590Z,225.00
2022-08-26T11:09:06.942Z,208.13
2022-08-26T11:10:05.509Z,191.25
2022-08-26T11:11:04.529Z,213.75
2022-08-26T11:12:10.211Z,258.75
2022-08-26T11:13:07.476Z,270.00
2022-08-26T11:14:05.492Z,281.25
2022-08-26T11:15:05.581Z,275.63
2022-08-26T11:16:06.876Z,281.25
2022-08-26T11:17:08.106Z,281.25
2022-08-26T11:18:04.990Z,281.25
2022-08-26T11:19:06.464Z,286.88
2022-08-26T11:20:13.442Z,264.38
2022-08-26T11:21:04.579Z,270.00
2022-08-26T11:22:04.595Z,286.88
2022-08-26T11:23:04.635Z,292.50
2022-08-26T11:24:04.597Z,298.13
2022-08-26T11:25:06.457Z,292.50
2022-08-26T11:26:04.612Z,303.75
2022-08-26T11:27:04.667Z,303.75
2022-08-26T11:28:06.494Z,303.75
2022-08-26T11:29:04.627Z,298.13
2022-08-26T11:30:06.460Z,298.13
2022-08-26T11:31:04.726Z,303.75
2022-08-26T11:32:06.463Z,309.38
2022-08-26T11:33:06.494Z,309.38
2022-08-26T11:34:12.954Z,331.88
2022-08-26T11:35:05.048Z,303.75
2022-08-26T11:36:12.097Z,343.13
2022-08-26T11:37:12.520Z,354.38
2022-08-26T11:38:04.704Z,360.00
2022-08-26T11:39:06.502Z,354.38
2022-08-26T11:40:07.457Z,337.50
2022-08-26T11:41:06.462Z,331.88
2022-08-26T11:42:06.462Z,326.25
2022-08-26T11:43:06.457Z,326.25
2022-08-26T11:44:06.481Z,326.25
2022-08-26T11:45:06.467Z,331.88
2022-08-26T11:46:06.501Z,331.88
2022-08-26T11:47:06.481Z,343.13
2022-08-26T11:48:06.482Z,348.75
2022-08-26T11:49:06.475Z,365.63
2022-08-26T11:50:06.484Z,365.63
2022-08-26T11:51:06.473Z,376.88
2022-08-26T11:52:06.473Z,382.50
2022-08-26T11:53:06.595Z,376.88
2022-08-26T11:54:04.826Z,382.50
2022-08-26T11:55:06.492Z,405.00
2022-08-26T11:56:04.825Z,410.63
2022-08-26T11:57:09.277Z,427.50
2022-08-26T11:58:06.612Z,438.75
2022-08-26T11:59:04.852Z,388.13
2022-08-26T12:00:08.383Z,286.88
2022-08-26T12:01:09.843Z,258.75
2022-08-26T12:02:06.488Z,270.00
2022-08-26T12:03:06.731Z,416.25
2022-08-26T12:04:06.707Z,427.50
2022-08-26T12:05:06.510Z,438.75
2022-08-26T12:06:06.499Z,450.00
2022-08-26T12:07:06.513Z,393.75
2022-08-26T12:08:04.926Z,438.75
2022-08-26T12:09:06.569Z,461.25
2022-08-26T12:10:06.517Z,455.63
2022-08-26T12:11:06.510Z,455.63
2022-08-26T12:12:06.523Z,472.50
2022-08-26T12:13:04.980Z,506.25
2022-08-26T12:14:04.984Z,500.63
2022-08-26T12:15:06.517Z,489.38
2022-08-26T12:16:05.064Z,433.13
2022-08-26T12:17:05.041Z,500.63
2022-08-26T12:18:05.086Z,517.50
2022-08-26T12:19:05.024Z,495.00
2022-08-26T12:20:07.020Z,472.50
2022-08-26T12:21:05.066Z,444.38
2022-08-26T12:22:07.062Z,410.63
2022-08-26T12:23:05.061Z,388.13
2022-08-26T12:24:05.070Z,393.75
2022-08-26T12:25:05.082Z,382.50
2022-08-26T12:26:07.034Z,360.00
2022-08-26T12:27:05.102Z,337.50
2022-08-26T12:28:05.216Z,331.88
2022-08-26T12:29:09.429Z,360.00
2022-08-26T12:30:06.746Z,405.00
2022-08-26T12:31:07.038Z,517.50
2022-08-26T12:32:07.024Z,511.88
2022-08-26T12:33:13.323Z,511.88
2022-08-26T12:34:07.038Z,517.50
2022-08-26T12:36:07.061Z,500.63
2022-08-26T12:37:05.203Z,506.25
2022-08-26T12:38:05.199Z,556.88
2022-08-26T12:39:07.109Z,607.50
2022-08-26T12:40:05.269Z,630.00
2022-08-26T12:41:07.050Z,601.88
2022-08-26T12:42:05.244Z,573.75
2022-08-26T12:43:05.250Z,573.75
2022-08-26T12:44:07.261Z,579.38
2022-08-26T12:45:05.273Z,585.00
2022-08-26T12:46:08.998Z,517.50
2022-08-26T12:47:05.294Z,466.88
2022-08-26T12:48:05.334Z,455.63
2022-08-26T12:49:07.063Z,534.38
2022-08-26T12:50:05.331Z,545.63
2022-08-26T12:51:07.072Z,579.38
2022-08-26T12:52:07.081Z,635.63
2022-08-26T12:53:07.055Z,686.25
2022-08-26T12:54:07.054Z,686.25
2022-08-26T12:55:07.056Z,697.50
2022-08-26T12:56:07.072Z,697.50
2022-08-26T12:57:07.070Z,720.00
2022-08-26T12:58:07.201Z,725.63
2022-08-26T12:59:07.163Z,731.25
2022-08-26T13:00:05.413Z,703.13
2022-08-26T13:01:05.543Z,376.88
2022-08-26T13:02:07.169Z,382.50
2022-08-26T13:03:07.430Z,393.75
2022-08-26T13:04:07.085Z,708.75
2022-08-26T13:05:07.068Z,720.00
2022-08-26T13:06:07.073Z,697.50
2022-08-26T13:07:07.091Z,669.38
2022-08-26T13:08:07.071Z,720.00
2022-08-26T13:09:07.105Z,585.00
2022-08-26T13:10:07.078Z,540.00
2022-08-26T13:11:07.076Z,618.75
2022-08-26T13:12:07.079Z,697.50
2022-08-26T13:13:07.307Z,725.63
2022-08-26T13:14:07.389Z,691.88
2022-08-26T13:15:07.135Z,641.25
2022-08-26T13:16:07.158Z,630.00
2022-08-26T13:17:07.597Z,641.25
2022-08-26T13:18:07.589Z,641.25
2022-08-26T13:19:10.164Z,618.75
2022-08-26T13:20:07.611Z,630.00
2022-08-26T13:21:05.646Z,624.38
2022-08-26T13:22:07.636Z,618.75
2022-08-26T13:23:05.665Z,658.13
2022-08-26T13:24:05.672Z,686.25
2022-08-26T13:25:07.617Z,686.25
2022-08-26T13:26:05.694Z,686.25
2022-08-26T13:27:05.706Z,680.63
2022-08-26T13:28:05.721Z,691.88
2022-08-26T13:29:09.687Z,697.50
2022-08-26T13:30:07.637Z,708.75
2022-08-26T13:31:05.780Z,725.63
2022-08-26T13:32:05.767Z,725.63
2022-08-26T13:33:05.810Z,641.25
2022-08-26T13:34:05.786Z,725.63
2022-08-26T13:35:07.630Z,748.13
2022-08-26T13:36:07.624Z,714.38
2022-08-26T13:37:05.815Z,663.75
2022-08-26T13:38:07.612Z,292.50
2022-08-26T13:39:07.610Z,343.13
2022-08-26T13:40:07.762Z,658.13
2022-08-26T13:41:07.621Z,714.38
2022-08-26T13:42:07.615Z,725.63
2022-08-26T13:43:07.812Z,725.63
2022-08-26T13:44:07.618Z,720.00
2022-08-26T13:45:07.625Z,731.25
2022-08-26T13:46:07.636Z,725.63
2022-08-26T13:47:07.624Z,714.38
2022-08-26T13:48:07.810Z,742.50
2022-08-26T13:49:07.624Z,742.50
2022-08-26T13:50:07.631Z,742.50
2022-08-26T13:51:07.637Z,736.88
2022-08-26T13:52:07.647Z,703.13
2022-08-26T13:53:07.634Z,725.63
2022-08-26T13:54:07.633Z,736.88
2022-08-26T13:55:07.638Z,753.75
2022-08-26T13:56:10.841Z,753.75
2022-08-26T13:57:07.643Z,720.00
2022-08-26T13:58:07.773Z,601.88
2022-08-26T13:59:07.649Z,742.50
2022-08-26T14:00:07.663Z,669.38
2022-08-26T14:01:07.686Z,343.13
2022-08-26T14:02:07.644Z,303.75
2022-08-26T14:03:12.616Z,298.13
2022-08-26T14:04:07.658Z,360.00
2022-08-26T14:05:07.158Z,916.88
2022-08-26T14:06:06.184Z,517.50
2022-08-26T14:07:06.176Z,1080.00
2022-08-26T14:08:06.244Z,883.13
2022-08-26T14:09:08.191Z,804.38
2022-08-26T14:10:06.208Z,1203.75
2022-08-26T14:11:06.224Z,1400.63
2022-08-26T14:12:06.243Z,1451.25
2022-08-26T14:13:07.533Z,646.88
2022-08-26T14:14:08.175Z,461.25
2022-08-26T14:15:07.276Z,1355.63
2022-08-26T14:16:06.335Z,1170.00
2022-08-26T14:17:06.289Z,1440.00
2022-08-26T14:18:06.589Z,1530.00
2022-08-26T14:19:08.192Z,1580.63
2022-08-26T14:20:06.319Z,1518.75
2022-08-26T14:21:08.180Z,1395.00
2022-08-26T14:22:06.346Z,1282.50
2022-08-26T14:23:14.438Z,1282.50
2022-08-26T14:24:06.367Z,1428.75
2022-08-26T14:25:07.402Z,1468.13
2022-08-26T14:26:08.291Z,1485.00
2022-08-26T14:27:06.399Z,1434.38
2022-08-26T14:28:08.190Z,1333.13
2022-08-26T14:29:07.694Z,1260.00
2022-08-26T14:30:06.451Z,1316.25
2022-08-26T14:31:08.205Z,1333.13
2022-08-26T14:32:06.463Z,1395.00
2022-08-26T14:33:08.319Z,1400.63
2022-08-26T14:34:08.201Z,1462.50
2022-08-26T14:35:06.494Z,1456.88
2022-08-26T14:36:08.189Z,1389.38
2022-08-26T14:37:08.189Z,1361.25
2022-08-26T14:38:08.217Z,1417.50
2022-08-26T14:39:06.538Z,1468.13
2022-08-26T14:40:08.330Z,1445.63
2022-08-26T14:41:08.195Z,1327.50
2022-08-26T14:42:06.584Z,1254.38
2022-08-26T14:43:08.221Z,1299.38
2022-08-26T14:44:07.728Z,1366.88
2022-08-26T14:45:08.229Z,1333.13
2022-08-26T14:46:07.668Z,1096.88
2022-08-26T14:47:06.637Z,990.00
2022-08-26T14:48:08.329Z,1018.13
2022-08-26T14:49:10.574Z,1181.25
2022-08-26T14:50:08.225Z,1170.00
2022-08-26T14:51:08.214Z,1265.63
2022-08-26T14:52:08.209Z,1226.25
2022-08-26T14:53:08.204Z,1276.88
2022-08-26T14:54:08.256Z,1288.13
2022-08-26T14:55:06.727Z,1271.25
2022-08-26T14:56:06.748Z,1130.63
2022-08-26T14:57:08.739Z,1001.25
2022-08-26T14:58:06.764Z,978.75
2022-08-26T14:59:06.773Z,1119.38
2022-08-26T15:00:06.789Z,1108.13
2022-08-26T15:01:06.800Z,1192.50
2022-08-26T15:02:08.886Z,1226.25
2022-08-26T15:03:07.001Z,1153.13
2022-08-26T15:04:06.837Z,1085.63
2022-08-26T15:05:08.242Z,1057.50
2022-08-26T15:06:06.868Z,1057.50
2022-08-26T15:07:08.757Z,1040.63
2022-08-26T15:08:07.008Z,978.75
2022-08-26T15:09:08.731Z,883.13
2022-08-26T15:10:08.734Z,641.25
2022-08-26T15:11:08.768Z,551.25
2022-08-26T15:12:08.769Z,382.50
2022-08-26T15:13:08.743Z,382.50
2022-08-26T15:14:18.963Z,376.88
2022-08-26T15:15:08.744Z,444.38
2022-08-26T15:16:08.827Z,427.50
2022-08-26T15:17:08.754Z,376.88
2022-08-26T15:18:08.845Z,163.13
2022-08-26T15:19:08.759Z,146.25
2022-08-26T15:20:08.744Z,123.75
2022-08-26T15:21:08.747Z,101.25
2022-08-26T15:22:08.777Z,101.25
2022-08-26T15:23:08.988Z,101.25
2022-08-26T15:24:08.769Z,84.38
2022-08-26T15:25:08.783Z,73.13
2022-08-26T15:26:08.755Z,90.00
2022-08-26T15:27:08.775Z,118.13
2022-08-26T15:28:08.755Z,191.25
2022-08-26T15:29:08.756Z,106.88
2022-08-26T15:30:08.775Z,140.63
2022-08-26T15:31:08.819Z,135.00
2022-08-26T15:32:08.840Z,135.00
2022-08-26T15:33:14.971Z,95.63
2022-08-26T15:34:07.133Z,90.00
2022-08-26T15:35:09.452Z,90.00
2022-08-26T15:36:07.145Z,90.00
2022-08-26T15:37:07.185Z,78.75
2022-08-26T15:38:08.862Z,67.50
2022-08-26T15:39:08.847Z,61.88
2022-08-26T15:40:07.222Z,56.25
2022-08-26T15:41:08.779Z,56.25
2022-08-26T15:42:08.790Z,50.63
2022-08-26T15:43:25.750Z,45.00
2022-08-26T15:44:08.789Z,45.00
2022-08-26T15:45:07.223Z,45.00
2022-08-26T15:46:08.820Z,45.00
2022-08-26T15:47:08.781Z,45.00
2022-08-26T15:48:08.800Z,39.38
2022-08-26T15:49:08.779Z,39.38
2022-08-26T15:50:08.798Z,39.38
2022-08-26T15:51:08.800Z,39.38
2022-08-26T15:52:08.783Z,39.38
2022-08-26T15:53:08.787Z,33.75
2022-08-26T15:54:10.349Z,33.75
2022-08-26T15:55:07.266Z,28.13
2022-08-26T15:56:08.804Z,28.13
2022-08-26T15:57:11.486Z,22.50
2022-08-26T15:58:07.400Z,22.50
2022-08-26T15:59:07.284Z,16.88
2022-08-26T16:00:07.298Z,16.88
2022-08-26T16:12:24.908Z,16.88
2022-08-26T16:13:24.310Z,16.88
2022-08-26T16:14:24.421Z,22.50
2022-08-26T16:15:24.905Z,22.50
2022-08-26T16:16:24.988Z,28.13
2022-08-26T16:17:23.334Z,28.13
2022-08-26T16:18:24.896Z,33.75
2022-08-26T16:19:24.912Z,33.75
2022-08-26T16:20:23.337Z,39.38
2022-08-26T16:21:24.351Z,39.38
2022-08-26T16:22:23.342Z,39.38
2022-08-26T16:23:24.932Z,39.38
2022-08-26T16:24:29.731Z,33.75
2022-08-26T16:25:24.919Z,33.75
2022-08-26T16:26:24.424Z,28.13
2022-08-26T16:27:23.365Z,28.13
2022-08-26T16:28:25.006Z,28.13
2022-08-26T16:29:23.364Z,33.75
2022-08-26T16:30:24.935Z,33.75
2022-08-26T16:31:24.454Z,33.75
2022-08-26T16:32:23.377Z,39.38
2022-08-26T16:33:29.569Z,39.38
2022-08-26T16:34:23.396Z,45.00
2022-08-26T16:35:24.925Z,50.63
2022-08-26T16:36:24.917Z,56.25
2022-08-26T16:37:24.929Z,56.25
2022-08-26T16:38:24.920Z,61.88
2022-08-26T16:39:24.920Z,61.88
2022-08-26T16:40:25.052Z,61.88
2022-08-26T16:41:24.942Z,61.88
2022-08-26T16:42:24.948Z,61.88
2022-08-26T16:43:24.927Z,67.50
2022-08-26T16:44:24.926Z,67.50
2022-08-26T16:45:23.425Z,73.13
2022-08-26T16:46:24.998Z,73.13
2022-08-26T16:47:24.928Z,73.13
2022-08-26T16:48:24.947Z,73.13
2022-08-26T16:49:25.432Z,73.13
2022-08-26T16:50:25.432Z,67.50
2022-08-26T16:51:25.449Z,67.50
2022-08-26T16:52:25.432Z,67.50
2022-08-26T16:53:25.449Z,67.50
2022-08-26T16:54:25.443Z,61.88
2022-08-26T16:55:25.437Z,61.88
2022-08-26T16:56:27.658Z,61.88
2022-08-26T16:57:25.447Z,56.25
2022-08-26T16:58:25.474Z,56.25
2022-08-26T16:59:25.445Z,56.25
2022-08-26T17:00:25.454Z,50.63
2022-08-26T17:01:23.566Z,50.63
2022-08-26T17:02:25.487Z,50.63
2022-08-26T17:03:25.461Z,50.63
2022-08-26T17:04:23.500Z,45.00
2022-08-26T17:05:23.499Z,45.00
2022-08-26T17:06:25.453Z,45.00
2022-08-26T17:07:25.471Z,45.00
2022-08-26T17:08:28.697Z,45.00
2022-08-26T17:09:25.473Z,45.00
2022-08-26T17:10:25.451Z,45.00
2022-08-26T17:11:25.454Z,39.38
2022-08-26T17:12:25.471Z,39.38
2022-08-26T17:13:31.646Z,39.38
2022-08-26T17:14:24.528Z,39.38
2022-08-26T17:15:25.700Z,45.00
2022-08-26T17:16:26.918Z,45.00
2022-08-26T17:17:25.475Z,45.00
2022-08-26T17:18:25.466Z,45.00
2022-08-26T17:19:23.547Z,45.00
2022-08-26T17:20:25.468Z,45.00
2022-08-26T17:21:25.479Z,45.00
2022-08-26T17:22:25.470Z,45.00
2022-08-26T17:23:23.564Z,45.00
2022-08-26T17:24:23.565Z,39.38
2022-08-26T17:25:23.577Z,39.38
2022-08-26T17:26:24.992Z,39.38
2022-08-26T17:27:23.571Z,39.38
2022-08-26T17:28:23.582Z,33.75
2022-08-26T17:29:23.587Z,33.75
2022-08-26T17:30:23.595Z,33.75
2022-08-26T17:31:25.530Z,33.75
2022-08-26T17:32:23.587Z,33.75
2022-08-26T17:33:25.337Z,28.13
2022-08-26T17:34:23.598Z,28.13
2022-08-26T17:35:23.611Z,28.13
2022-08-26T17:36:28.081Z,22.50
2022-08-26T17:37:25.497Z,22.50
2022-08-26T17:38:25.511Z,22.50
2022-08-26T17:39:25.497Z,22.50
2022-08-26T17:40:23.664Z,16.88
2022-08-26T17:41:25.004Z,16.88
2022-08-26T17:42:31.562Z,16.88
2022-08-26T17:43:25.495Z,16.88
2022-08-26T17:44:24.629Z,16.88
2022-08-26T17:45:23.632Z,16.88
2022-08-26T17:46:25.590Z,16.88
2022-08-26T17:47:23.634Z,11.25
2022-08-26T17:48:25.508Z,11.25
2022-08-26T17:49:23.642Z,11.25
2022-08-26T17:50:25.497Z,11.25
2022-08-26T17:51:25.013Z,11.25
2022-08-26T17:52:25.500Z,5.63
2022-08-26T17:53:23.669Z,5.63
2022-08-26T17:54:25.505Z,5.63
2022-08-26T17:55:25.508Z,5.63
2022-08-26T17:56:25.604Z,5.63
2022-08-26T17:57:23.671Z,5.63
2022-08-26T17:58:25.509Z,5.63
2022-08-26T17:59:25.530Z,5.63
2022-08-26T18:00:23.677Z,5.63
2022-08-26T18:01:25.569Z,5.63
2022-08-26T18:02:23.723Z,0.00
2022-08-26T18:03:25.529Z,0.00
2022-08-26T18:04:25.562Z,0.00
2022-08-26T18:05:25.549Z,0.00
2022-08-26T18:06:25.513Z,0.00
2022-08-26T18:07:25.531Z,0.00
2022-08-26T18:08:23.697Z,0.00
2022-08-26T18:09:23.698Z,0.00
2022-08-26T18:10:23.710Z,0.00
2022-08-26T18:11:23.705Z,0.00
2022-08-26T18:12:25.534Z,0.00
2022-08-26T18:13:25.536Z,0.00
2022-08-26T18:14:25.535Z,0.00
2022-08-26T18:15:25.644Z,0.00
2022-08-26T18:16:25.530Z,0.00
2022-08-26T18:17:25.527Z,0.00
2022-08-26T18:18:25.536Z,0.00
2022-08-26T18:19:25.545Z,0.00
2022-08-26T18:20:25.547Z,0.00
2022-08-26T18:21:25.545Z,0.00
2022-08-26T18:22:25.539Z,0.00
2022-08-26T18:23:25.559Z,0.00
2022-08-26T18:24:25.548Z,0.00
2022-08-26T18:25:25.548Z,0.00
2022-08-26T18:26:25.540Z,0.00
2022-08-26T18:27:25.550Z,0.00
2022-08-26T18:28:25.544Z,0.00
2022-08-26T18:29:23.749Z,0.00
2022-08-26T18:30:23.765Z,0.00
2022-08-26T18:31:23.818Z,0.00
2022-08-26T18:32:23.762Z,0.00
2022-08-26T18:33:25.058Z,0.00
2022-08-26T18:34:25.558Z,0.00
2022-08-26T18:35:23.760Z,0.00
2022-08-26T18:36:23.805Z,0.00
2022-08-26T18:37:25.752Z,0.00
2022-08-26T18:38:23.801Z,0.00
2022-08-26T18:39:25.562Z,0.00
2022-08-26T18:40:25.598Z,0.00
2022-08-26T18:41:25.553Z,0.00
2022-08-26T18:42:25.554Z,0.00
2022-08-26T18:43:25.567Z,0.00
2022-08-26T18:44:25.557Z,0.00
2022-08-26T18:45:25.584Z,0.00
2022-08-26T18:46:25.311Z,0.00
2022-08-26T18:47:25.558Z,0.00
2022-08-26T18:48:23.796Z,0.00
2022-08-26T18:49:25.578Z,0.00
2022-08-26T18:50:25.579Z,0.00
2022-08-26T18:51:25.574Z,0.00
2022-08-26T18:52:25.573Z,0.00
2022-08-26T18:53:25.580Z,0.00
2022-08-26T18:54:25.581Z,0.00
2022-08-26T18:55:25.579Z,0.00
2022-08-26T18:56:25.578Z,0.00
2022-08-26T18:57:25.570Z,0.00
2022-08-26T18:58:25.572Z,0.00
2022-08-26T18:59:29.486Z,0.00
2022-08-26T19:00:25.087Z,0.00
2022-08-26T19:01:27.396Z,0.00
2022-08-26T19:02:24.045Z,0.00
2022-08-26T19:03:23.830Z,0.00
2022-08-26T19:04:25.114Z,0.00
2022-08-26T19:05:23.833Z,0.00
2022-08-26T19:06:23.832Z,0.00
2022-08-26T19:07:23.836Z,0.00
2022-08-26T19:08:25.603Z,0.00
2022-08-26T19:09:23.841Z,0.00
2022-08-26T19:10:23.842Z,0.00
2022-08-26T19:11:31.468Z,0.00
2022-08-26T19:12:26.851Z,0.00
2022-08-26T19:13:23.851Z,0.00
2022-08-26T19:14:25.604Z,0.00
2022-08-26T19:15:25.606Z,0.00
2022-08-26T19:16:23.886Z,0.00
2022-08-26T19:17:23.860Z,0.00
2022-08-26T19:18:23.863Z,0.00
2022-08-26T19:19:23.889Z,0.00
2022-08-26T19:20:25.609Z,0.00
2022-08-26T19:21:24.873Z,0.00
2022-08-26T19:22:23.868Z,0.00
2022-08-26T19:23:31.368Z,0.00
2022-08-26T19:24:27.478Z,0.00
2022-08-26T19:25:24.875Z,0.00
2022-08-26T19:26:25.607Z,0.00
2022-08-26T19:27:23.885Z,0.00
2022-08-26T19:28:25.613Z,0.00
2022-08-26T19:29:25.630Z,0.00
2022-08-26T19:30:25.705Z,0.00
2022-08-26T19:31:25.697Z,0.00
2022-08-26T19:32:25.612Z,0.00
2022-08-26T19:33:25.611Z,0.00
2022-08-26T19:34:23.890Z,0.00
2022-08-26T19:35:25.626Z,0.00
2022-08-26T19:36:25.643Z,0.00
2022-08-26T19:37:23.897Z,0.00
2022-08-26T19:38:23.905Z,0.00
2022-08-26T19:39:23.913Z,0.00
2022-08-26T19:40:25.789Z,0.00
2022-08-26T19:41:37.128Z,0.00
2022-08-26T19:42:23.905Z,0.00
2022-08-26T19:43:25.621Z,0.00
2022-08-26T19:44:24.934Z,0.00
2022-08-26T19:45:25.671Z,0.00
2022-08-26T19:46:25.853Z,0.00
2022-08-26T19:47:25.624Z,0.00
2022-08-26T19:48:25.645Z,0.00
2022-08-26T19:49:25.649Z,0.00
2022-08-26T19:50:25.667Z,0.00
2022-08-26T19:51:25.626Z,0.00
2022-08-26T19:52:30.200Z,0.00
2022-08-26T19:53:25.635Z,0.00
2022-08-26T19:54:25.629Z,0.00
2022-08-26T19:55:25.654Z,0.00
2022-08-26T19:56:25.632Z,0.00
2022-08-26T19:57:23.942Z,0.00
2022-08-26T19:58:23.936Z,0.00
2022-08-26T19:59:25.645Z,0.00
2022-08-26T20:00:23.949Z,0.00
2022-08-26T20:01:23.995Z,0.00
2022-08-26T20:02:25.689Z,0.00
2022-08-26T20:03:23.951Z,0.00
2022-08-26T20:04:23.955Z,0.00
2022-08-26T20:05:23.948Z,0.00
2022-08-26T20:06:25.655Z,0.00
2022-08-26T20:07:23.952Z,0.00
2022-08-26T20:08:23.957Z,0.00
2022-08-26T20:09:25.658Z,0.00
2022-08-26T20:10:23.960Z,0.00
2022-08-26T20:11:23.973Z,0.00
2022-08-26T20:12:23.960Z,0.00
2022-08-26T20:13:23.971Z,0.00
2022-08-26T20:14:24.996Z,0.00
2022-08-26T20:15:25.665Z,0.00
2022-08-26T20:16:25.721Z,0.00
2022-08-26T20:17:23.974Z,0.00
2022-08-26T20:18:25.655Z,0.00